createdAt,value
2023-04-12T00:00:56.330Z,99761.69
2023-04-12T00:03:25.349Z,99755.28
2023-04-12T00:05:55.129Z,99747.06
2023-04-12T00:08:26.253Z,99741.63
2023-04-12T00:10:54.075Z,99738.63
2023-04-12T00:13:21.816Z,99732.88
2023-04-12T00:15:50.967Z,99731.06
2023-04-12T00:18:18.770Z,99716.59
2023-04-12T00:20:46.529Z,99714.44
2023-04-12T00:23:14.237Z,99720.03
2023-04-12T00:25:42.019Z,99695.97
2023-04-12T00:28:09.685Z,99691.03
2023-04-12T00:30:37.448Z,99697.44
2023-04-12T00:33:06.618Z,99687.38
2023-04-12T00:35:34.636Z,99689.53
2023-04-12T00:38:03.669Z,99664.47
2023-04-12T00:40:31.493Z,99672.69
2023-04-12T00:42:59.241Z,99656.53
2023-04-12T00:45:28.096Z,99658.84
2023-04-12T00:47:57.363Z,99661.78
2023-04-12T00:50:26.522Z,99655.34
2023-04-12T00:52:55.477Z,99658.44
2023-04-12T00:55:24.061Z,99652.19
2023-04-12T00:57:52.790Z,99653.28
2023-04-12T01:00:20.866Z,99646.69
2023-04-12T01:02:50.579Z,99642.09
2023-04-12T01:05:22.780Z,99636.44
2023-04-12T01:08:04.941Z,99635.28
2023-04-12T01:10:42.528Z,99624.56
2023-04-12T01:13:22.171Z,99625.19
2023-04-12T01:15:57.585Z,99625.19
2023-04-12T01:18:31.744Z,99617.94
2023-04-12T01:21:05.033Z,99615.31
2023-04-12T01:23:51.924Z,99599.16
2023-04-12T01:26:34.404Z,99590.91
2023-04-12T01:29:11.824Z,99597.66
2023-04-12T01:31:43.172Z,99592.00
2023-04-12T01:34:12.992Z,99575.84
2023-04-12T01:36:43.498Z,99568.75
2023-04-12T01:39:11.909Z,99567.59
2023-04-12T01:41:41.882Z,99555.84
2023-04-12T01:44:14.120Z,99556.50
2023-04-12T01:46:42.577Z,99552.88
2023-04-12T01:49:12.810Z,99557.97
2023-04-12T01:51:50.775Z,99556.97
2023-04-12T01:54:22.843Z,99552.50
2023-04-12T01:56:57.664Z,99549.69
2023-04-12T01:59:31.502Z,99548.69
2023-04-12T02:01:59.726Z,99554.97
2023-04-12T02:04:28.779Z,99546.88
2023-04-12T02:06:57.110Z,99542.59
2023-04-12T02:09:24.895Z,99537.31
2023-04-12T02:11:52.618Z,99525.94
2023-04-12T02:14:20.355Z,99525.13
2023-04-12T02:16:50.604Z,99526.75
2023-04-12T02:19:19.412Z,99512.75
2023-04-12T02:21:47.492Z,99509.28
2023-04-12T02:24:16.067Z,99501.59
2023-04-12T02:26:46.189Z,99498.75
2023-04-12T02:29:14.743Z,99500.75
2023-04-12T02:31:42.784Z,99497.09
2023-04-12T02:34:16.043Z,99484.94
2023-04-12T02:36:49.138Z,99487.56
2023-04-12T02:39:19.267Z,99484.72
2023-04-12T02:41:49.262Z,99482.28
2023-04-12T02:44:17.627Z,99476.00
2023-04-12T02:46:53.507Z,99470.72
2023-04-12T02:49:22.621Z,99458.72
2023-04-12T02:51:50.803Z,99453.28
2023-04-12T02:54:22.599Z,99463.63
2023-04-12T02:56:54.046Z,99448.00
2023-04-12T02:59:54.154Z,99463.00
2023-04-12T03:02:26.016Z,99452.63
2023-04-12T03:05:00.452Z,99454.09
2023-04-12T03:07:37.279Z,99440.25
2023-04-12T03:10:07.520Z,99438.63
2023-04-12T03:12:40.061Z,99439.78
2023-04-12T03:15:15.428Z,99424.97
2023-04-12T03:17:47.221Z,99428.78
2023-04-12T03:20:19.955Z,99414.53
2023-04-12T03:22:57.142Z,99417.69
2023-04-12T03:25:24.946Z,99416.19
2023-04-12T03:27:57.972Z,99407.00
2023-04-12T03:30:35.301Z,99410.81
2023-04-12T03:33:03.196Z,99412.00
2023-04-12T03:35:32.714Z,99407.56
2023-04-12T03:38:01.237Z,99401.47
2023-04-12T03:40:29.171Z,99396.34
2023-04-12T03:43:01.781Z,99389.28
2023-04-12T03:45:30.545Z,99381.09
2023-04-12T03:48:01.332Z,99375.16
2023-04-12T03:50:41.982Z,99372.88
2023-04-12T03:53:10.660Z,99362.72
2023-04-12T03:55:38.764Z,99351.06
2023-04-12T03:58:07.079Z,99348.63
2023-04-12T04:00:41.130Z,99335.63
2023-04-12T04:03:10.475Z,99321.16
2023-04-12T04:05:47.238Z,99314.78
2023-04-12T04:08:17.106Z,99309.06
2023-04-12T04:11:02.613Z,99315.50
2023-04-12T04:13:37.906Z,99308.59
2023-04-12T04:16:10.927Z,99306.78
2023-04-12T04:18:40.670Z,99300.34
2023-04-12T04:21:14.241Z,99293.06
2023-04-12T04:23:44.841Z,99280.69
2023-04-12T04:26:13.807Z,99275.09
2023-04-12T04:28:50.252Z,99261.53
2023-04-12T04:31:22.297Z,99257.72
2023-04-12T04:33:51.369Z,99254.91
2023-04-12T04:36:24.992Z,99252.91
2023-04-12T04:38:55.566Z,99244.19
2023-04-12T04:41:39.478Z,99240.34
2023-04-12T04:44:10.382Z,99227.81
2023-04-12T04:46:43.913Z,99220.72
2023-04-12T04:49:12.006Z,99215.09
2023-04-12T04:51:41.157Z,99203.94
2023-04-12T04:54:11.507Z,99200.13
2023-04-12T04:56:41.994Z,99198.91
2023-04-12T04:59:11.537Z,99197.72
2023-04-12T05:01:41.305Z,99199.28
2023-04-12T05:04:09.482Z,99187.16
2023-04-12T05:06:37.723Z,99189.09
2023-04-12T05:09:08.853Z,99185.53
2023-04-12T05:11:42.665Z,99189.41
2023-04-12T05:14:12.744Z,99187.88
2023-04-12T05:16:41.334Z,99189.75
2023-04-12T05:19:09.118Z,99177.19
2023-04-12T05:21:36.854Z,99169.88
2023-04-12T05:24:05.307Z,99171.16
2023-04-12T05:26:36.419Z,99149.47
2023-04-12T05:29:09.062Z,99155.44
2023-04-12T05:31:36.812Z,99153.09
2023-04-12T05:34:08.089Z,99144.88
2023-04-12T05:36:55.781Z,99143.72
2023-04-12T05:39:24.296Z,99143.16
2023-04-12T05:41:55.049Z,99138.31
2023-04-12T05:44:22.780Z,99124.94
2023-04-12T05:46:50.673Z,99130.44
2023-04-12T05:49:18.427Z,99123.97
2023-04-12T05:51:46.334Z,99115.41
2023-04-12T05:54:22.369Z,99112.03
2023-04-12T05:56:54.220Z,99112.09
2023-04-12T05:59:23.687Z,99110.53
2023-04-12T06:01:51.683Z,99093.44
2023-04-12T06:04:21.133Z,99093.09
2023-04-12T06:06:49.659Z,99095.41
2023-04-12T06:09:17.402Z,99084.69
2023-04-12T06:11:45.275Z,99084.91
2023-04-12T06:14:13.223Z,99085.53
2023-04-12T06:16:42.469Z,99098.56
2023-04-12T06:19:11.200Z,99089.16
2023-04-12T06:21:39.031Z,99080.41
2023-04-12T06:24:08.032Z,99083.22
2023-04-12T06:26:39.673Z,99078.78
2023-04-12T06:29:08.444Z,99077.56
2023-04-12T06:31:36.288Z,99067.25
2023-04-12T06:34:05.775Z,99070.16
2023-04-12T06:36:33.934Z,99062.41
2023-04-12T06:39:01.653Z,99053.47
2023-04-12T06:41:29.579Z,99047.75
2023-04-12T06:44:01.477Z,99048.75
2023-04-12T06:46:30.001Z,99041.41
2023-04-12T06:48:58.020Z,99039.00
2023-04-12T06:51:28.130Z,99032.66
2023-04-12T06:53:56.207Z,99031.47
2023-04-12T06:56:24.045Z,99025.56
2023-04-12T06:58:51.815Z,99018.44
2023-04-12T07:01:19.714Z,99011.31
2023-04-12T07:03:47.757Z,99008.47
2023-04-12T07:06:24.905Z,99005.41
2023-04-12T07:08:54.909Z,99002.34
2023-04-12T07:11:23.932Z,98997.69
2023-04-12T07:13:52.046Z,98985.91
2023-04-12T07:16:19.817Z,98986.69
2023-04-12T07:18:47.664Z,98988.13
2023-04-12T07:21:17.476Z,98981.22
2023-04-12T07:23:46.800Z,98972.25
2023-04-12T07:26:16.005Z,98973.69
2023-04-12T07:28:43.884Z,98976.34
2023-04-12T07:31:11.712Z,98972.03
2023-04-12T07:33:42.341Z,98967.16
2023-04-12T07:36:11.847Z,98963.28
2023-04-12T07:38:39.696Z,98959.63
2023-04-12T07:41:07.465Z,98947.00
2023-04-12T07:43:36.616Z,98937.25
2023-04-12T07:46:08.350Z,98934.41
2023-04-12T07:48:36.205Z,98930.53
2023-04-12T07:51:04.170Z,98932.97
2023-04-12T07:53:31.914Z,98920.75
2023-04-12T07:55:59.704Z,98923.75
2023-04-12T07:58:27.440Z,98917.63
2023-04-12T08:00:59.184Z,98918.00
2023-04-12T08:03:28.600Z,98919.44
2023-04-12T08:05:56.473Z,98917.66
2023-04-12T08:08:24.299Z,98905.81
2023-04-12T08:10:52.985Z,98909.94
2023-04-12T08:13:21.237Z,98911.56
2023-04-12T08:15:49.303Z,98910.50
2023-04-12T08:18:21.096Z,98904.38
2023-04-12T08:20:49.291Z,98902.47
2023-04-12T08:23:17.539Z,98896.78
2023-04-12T08:25:45.371Z,98898.06
2023-04-12T08:28:13.149Z,98898.25
2023-04-12T08:30:40.988Z,98892.16
2023-04-12T08:33:08.731Z,98895.16
2023-04-12T08:35:40.016Z,98887.81
2023-04-12T08:38:08.125Z,98891.28
2023-04-12T08:40:36.648Z,98891.13
2023-04-12T08:43:08.641Z,98888.78
2023-04-12T08:45:37.213Z,98877.97
2023-04-12T08:48:06.786Z,98876.44
2023-04-12T08:50:34.745Z,98865.25
2023-04-12T08:53:03.910Z,98866.00
2023-04-12T08:55:31.792Z,98867.13
2023-04-12T08:58:00.315Z,98847.13
2023-04-12T09:00:28.623Z,98847.09
2023-04-12T09:02:56.434Z,98843.22
2023-04-12T09:05:29.922Z,98845.19
2023-04-12T09:07:58.022Z,98844.81
2023-04-12T09:10:35.082Z,98834.81
2023-04-12T09:13:03.897Z,98834.06
2023-04-12T09:15:31.667Z,98833.88
2023-04-12T09:18:08.196Z,98825.66
2023-04-12T09:20:36.574Z,98813.88
2023-04-12T09:23:18.475Z,98811.72
2023-04-12T09:25:48.428Z,98800.47
2023-04-12T09:28:21.309Z,98803.59
2023-04-12T09:30:51.621Z,98794.31
2023-04-12T09:33:21.374Z,98789.00
2023-04-12T09:35:49.890Z,98793.59
2023-04-12T09:38:17.936Z,98777.53
2023-04-12T09:40:47.011Z,98780.78
2023-04-12T09:43:15.797Z,98777.53
2023-04-12T09:45:43.646Z,98780.19
2023-04-12T09:48:20.303Z,98764.38
2023-04-12T09:50:48.478Z,98762.13
2023-04-12T09:53:18.275Z,98761.59
2023-04-12T09:55:49.081Z,98760.13
2023-04-12T09:58:20.069Z,98757.09
2023-04-12T10:00:48.687Z,98754.38
2023-04-12T10:03:16.935Z,98747.91
2023-04-12T10:05:45.020Z,98751.16
2023-04-12T10:08:13.278Z,98749.22
2023-04-12T10:10:41.250Z,98753.91
2023-04-12T10:13:13.779Z,98740.25
2023-04-12T10:15:42.462Z,98742.56
2023-04-12T10:18:12.665Z,98740.16
2023-04-12T10:20:41.777Z,98739.25
2023-04-12T10:23:12.042Z,98737.41
2023-04-12T10:25:42.110Z,98744.63
2023-04-12T10:28:19.809Z,98729.31
2023-04-12T10:30:49.540Z,98734.91
2023-04-12T10:33:19.009Z,98734.16
2023-04-12T10:35:52.500Z,98725.53
2023-04-12T10:38:20.949Z,98732.75
2023-04-12T10:41:08.256Z,98718.81
2023-04-12T10:43:37.650Z,98722.25
2023-04-12T10:46:06.844Z,98714.88
2023-04-12T10:48:35.865Z,98721.91
2023-04-12T10:51:15.139Z,98727.25
2023-04-12T10:53:43.123Z,98727.59
2023-04-12T10:56:38.314Z,98719.69
2023-04-12T10:59:08.315Z,98720.50
2023-04-12T11:01:42.336Z,98717.50
2023-04-12T11:04:16.825Z,98712.69
2023-04-12T11:07:21.571Z,98696.50
2023-04-12T11:09:51.045Z,98707.72
2023-04-12T11:12:30.658Z,98710.81
2023-04-12T11:15:03.042Z,98715.78
2023-04-12T11:17:55.741Z,98704.31
2023-04-12T11:20:24.129Z,98710.41
2023-04-12T11:22:52.669Z,98705.16
2023-04-12T11:25:21.494Z,98696.59
2023-04-12T11:27:53.429Z,98689.75
2023-04-12T11:30:23.648Z,98686.69
2023-04-12T11:32:51.547Z,98690.75
2023-04-12T11:35:24.276Z,98697.88
2023-04-12T11:37:52.235Z,98682.50
2023-04-12T11:40:23.313Z,98681.75
2023-04-12T11:42:51.288Z,98683.63
2023-04-12T11:45:22.270Z,98681.72
2023-04-12T11:47:52.117Z,98682.75
2023-04-12T11:50:30.465Z,98680.16
2023-04-12T11:53:11.264Z,98672.00
2023-04-12T11:55:39.221Z,98675.09
2023-04-12T11:58:07.656Z,98663.41
2023-04-12T12:00:37.115Z,98668.09
2023-04-12T12:03:08.234Z,98657.75
2023-04-12T12:05:39.259Z,98662.03
2023-04-12T12:08:08.281Z,98658.72
2023-04-12T12:10:46.879Z,98662.28
2023-04-12T12:13:23.592Z,98666.69
2023-04-12T12:15:54.371Z,98664.47
2023-04-12T12:18:27.225Z,98658.28
2023-04-12T12:20:55.816Z,98655.19
2023-04-12T12:23:33.553Z,98664.41
2023-04-12T12:26:17.940Z,98659.50
2023-04-12T12:28:51.175Z,98656.78
2023-04-12T12:31:22.368Z,98646.34
2023-04-12T12:33:52.526Z,98654.25
2023-04-12T12:36:21.352Z,98661.84
2023-04-12T12:38:51.397Z,98654.78
2023-04-12T12:41:20.904Z,98660.38
2023-04-12T12:43:49.378Z,98660.94
2023-04-12T12:46:18.540Z,98664.53
2023-04-12T12:48:49.259Z,98663.41
2023-04-12T12:51:17.934Z,98664.16
2023-04-12T12:53:46.094Z,98653.88
2023-04-12T12:56:15.343Z,98654.03
2023-04-12T12:58:43.223Z,98650.72
2023-04-12T13:01:11.288Z,98657.31
2023-04-12T13:03:39.124Z,98653.03
2023-04-12T13:06:10.082Z,98655.72
2023-04-12T13:08:38.039Z,98645.06
2023-04-12T13:11:06.307Z,98649.94
2023-04-12T13:13:34.012Z,98653.94
2023-04-12T13:16:01.797Z,98651.13
2023-04-12T13:18:29.608Z,98651.81
2023-04-12T13:20:57.493Z,98648.03
2023-04-12T13:23:26.748Z,98650.69
2023-04-12T13:25:54.667Z,98648.47
2023-04-12T13:28:22.584Z,98638.44
2023-04-12T13:30:50.491Z,98642.13
2023-04-12T13:33:21.579Z,98641.22
2023-04-12T13:35:50.116Z,98648.84
2023-04-12T13:38:17.965Z,98644.56
2023-04-12T13:40:47.053Z,98639.34
2023-04-12T13:43:14.813Z,98628.97
2023-04-12T13:45:42.647Z,98628.56
2023-04-12T13:48:10.535Z,98629.03
2023-04-12T13:50:38.380Z,98625.28
2023-04-12T13:53:06.161Z,98622.06
2023-04-12T13:55:33.846Z,98624.16
2023-04-12T13:58:02.926Z,98625.28
2023-04-12T14:00:30.766Z,98631.19
2023-04-12T14:02:58.579Z,98623.53
2023-04-12T14:05:26.527Z,98620.66
2023-04-12T14:07:55.635Z,98608.56
2023-04-12T14:10:23.447Z,98610.69
2023-04-12T14:12:51.280Z,98613.44
2023-04-12T14:15:20.460Z,98611.81
2023-04-12T14:17:48.413Z,98611.81
2023-04-12T14:20:19.216Z,98605.53
2023-04-12T14:22:47.372Z,98605.63
2023-04-12T14:25:15.326Z,98606.78
2023-04-12T14:27:43.068Z,98595.63
2023-04-12T14:30:11.100Z,98591.13
2023-04-12T14:32:41.123Z,98588.09
2023-04-12T14:35:09.839Z,98596.66
2023-04-12T14:37:37.948Z,98600.94
2023-04-12T14:40:08.350Z,98601.97
2023-04-12T14:42:36.203Z,98609.56
2023-04-12T14:45:05.383Z,98611.66
2023-04-12T14:47:33.135Z,98616.44
2023-04-12T14:50:02.315Z,98622.66
2023-04-12T14:52:33.712Z,98621.91
2023-04-12T14:55:02.356Z,98624.09
2023-04-12T14:57:30.285Z,98628.69
2023-04-12T14:59:58.543Z,98621.56
2023-04-12T15:02:26.970Z,98621.25
2023-04-12T15:04:54.967Z,98624.63
2023-04-12T15:07:24.085Z,98630.66
2023-04-12T15:09:51.893Z,98630.47
2023-04-12T15:12:19.779Z,98626.56
2023-04-12T15:14:47.552Z,98623.66
2023-04-12T15:17:15.287Z,98624.22
2023-04-12T15:19:43.137Z,98619.06
2023-04-12T15:22:10.848Z,98612.47
2023-04-12T15:24:40.012Z,98610.84
2023-04-12T15:27:07.829Z,98612.00
2023-04-12T15:29:36.192Z,98619.50
2023-04-12T15:32:04.134Z,98617.97
2023-04-12T15:34:33.830Z,98623.69
2023-04-12T15:37:02.409Z,98623.13
2023-04-12T15:39:30.429Z,98620.88
2023-04-12T15:42:00.260Z,98628.16
2023-04-12T15:44:31.678Z,98633.47
2023-04-12T15:47:10.517Z,98630.34
2023-04-12T15:49:39.224Z,98634.75
2023-04-12T15:52:06.994Z,98629.84
2023-04-12T15:54:35.093Z,98635.16
2023-04-12T15:57:09.574Z,98634.66
2023-04-12T15:59:37.993Z,98626.31
2023-04-12T16:02:09.344Z,98631.81
2023-04-12T16:04:37.869Z,98630.59
2023-04-12T16:07:05.848Z,98634.44
2023-04-12T16:09:34.774Z,98637.00
2023-04-12T16:12:04.247Z,98631.97
2023-04-12T16:14:32.274Z,98633.13
2023-04-12T16:17:00.132Z,98637.66
2023-04-12T16:19:28.243Z,98638.72
2023-04-12T16:21:55.997Z,98635.13
2023-04-12T16:24:23.743Z,98640.88
2023-04-12T16:26:51.990Z,98648.03
2023-04-12T16:29:21.077Z,98649.50
2023-04-12T16:31:48.843Z,98661.19
2023-04-12T16:34:16.612Z,98698.13
2023-04-12T16:36:44.639Z,98732.41
2023-04-12T16:39:13.211Z,98733.56
2023-04-12T16:41:40.920Z,98732.22
2023-04-12T16:44:08.738Z,98736.75
2023-04-12T16:46:37.984Z,98747.53
2023-04-12T16:49:05.898Z,98743.44
2023-04-12T16:51:36.757Z,98749.66
2023-04-12T16:54:05.573Z,98744.41
2023-04-12T16:56:33.291Z,98735.72
2023-04-12T16:59:01.189Z,98741.69
2023-04-12T17:01:28.924Z,98739.88
2023-04-12T17:04:00.030Z,98747.47
2023-04-12T17:06:30.252Z,98746.25
2023-04-12T17:08:58.122Z,98743.81
2023-04-12T17:11:26.615Z,98752.59
2023-04-12T17:13:54.636Z,98761.56
2023-04-12T17:16:22.427Z,98759.50
2023-04-12T17:18:50.198Z,98768.25
2023-04-12T17:21:20.184Z,98761.34
2023-04-12T17:23:49.484Z,98774.19
2023-04-12T17:26:19.022Z,98781.69
2023-04-12T17:28:46.838Z,98780.47
2023-04-12T17:31:15.353Z,98786.78
2023-04-12T17:33:43.082Z,98791.25
2023-04-12T17:36:12.046Z,98805.25
2023-04-12T17:38:41.599Z,98798.94
2023-04-12T17:41:10.209Z,98806.84
2023-04-12T17:43:38.066Z,98809.91
2023-04-12T17:46:07.252Z,98824.69
2023-04-12T17:48:35.787Z,98832.00
2023-04-12T17:51:04.211Z,98833.59
2023-04-12T17:53:32.055Z,98834.19
2023-04-12T17:56:01.369Z,98850.66
2023-04-12T17:58:29.895Z,98848.16
2023-04-12T18:00:57.759Z,98850.38
2023-04-12T18:03:26.634Z,98848.97
2023-04-12T18:05:55.592Z,98853.81
2023-04-12T18:08:23.971Z,98855.59
2023-04-12T18:10:52.222Z,98857.59
2023-04-12T18:13:21.913Z,98853.25
2023-04-12T18:15:49.705Z,98852.50
2023-04-12T18:18:17.553Z,98850.34
2023-04-12T18:20:45.273Z,98862.22
2023-04-12T18:23:13.035Z,98857.22
2023-04-12T18:25:40.887Z,98853.84
2023-04-12T18:28:09.853Z,98844.19
2023-04-12T18:30:38.962Z,98850.75
2023-04-12T18:33:08.045Z,98836.13
2023-04-12T18:35:36.216Z,98843.56
2023-04-12T18:38:03.955Z,98849.94
2023-04-12T18:40:31.779Z,98847.63
2023-04-12T18:43:02.743Z,98846.09
2023-04-12T18:45:31.036Z,98845.75
2023-04-12T18:48:00.475Z,98855.13
2023-04-12T18:50:28.496Z,98856.22
2023-04-12T18:52:56.282Z,98859.31
2023-04-12T18:55:23.980Z,98860.56
2023-04-12T18:57:51.681Z,98849.88
2023-04-12T19:00:20.471Z,98853.41
2023-04-12T19:02:48.329Z,98851.03
2023-04-12T19:05:18.505Z,98854.56
2023-04-12T19:07:46.301Z,98854.84
2023-04-12T19:10:14.592Z,98867.84
2023-04-12T19:12:42.362Z,98867.09
2023-04-12T19:15:11.857Z,98861.91
2023-04-12T19:17:40.118Z,98860.59
2023-04-12T19:20:09.318Z,98862.78
2023-04-12T19:22:38.429Z,98868.53
2023-04-12T19:25:07.222Z,98875.81
2023-04-12T19:27:34.924Z,98871.00
2023-04-12T19:30:03.454Z,98873.44
2023-04-12T19:32:31.506Z,98869.66
2023-04-12T19:34:59.273Z,98870.13
2023-04-12T19:37:28.382Z,98868.47
2023-04-12T19:39:57.596Z,98863.88
2023-04-12T19:42:25.317Z,98854.38
2023-04-12T19:44:53.118Z,98855.34
2023-04-12T19:47:21.719Z,98857.16
2023-04-12T19:49:49.813Z,98860.44
2023-04-12T19:52:20.137Z,98857.47
2023-04-12T19:54:47.920Z,98850.41
2023-04-12T19:57:17.817Z,98849.22
2023-04-12T19:59:45.567Z,98852.06
2023-04-12T20:02:13.412Z,98857.75
2023-04-12T20:04:41.590Z,98869.53
2023-04-12T20:07:09.482Z,98873.44
2023-04-12T20:09:37.276Z,98858.31
2023-04-12T20:12:06.238Z,98864.19
2023-04-12T20:14:36.869Z,98860.56
2023-04-12T20:17:05.853Z,98870.78
2023-04-12T20:19:33.680Z,98872.22
2023-04-12T20:22:03.712Z,98866.59
2023-04-12T20:24:34.406Z,98877.38
2023-04-12T20:27:02.357Z,98880.47
2023-04-12T20:29:31.580Z,98879.31
2023-04-12T20:32:00.759Z,98871.06
2023-04-12T20:34:29.358Z,98880.75
2023-04-12T20:36:57.961Z,98872.88
2023-04-12T20:39:25.723Z,98875.50
2023-04-12T20:41:54.834Z,98881.75
2023-04-12T20:44:22.700Z,98882.94
2023-04-12T20:46:50.917Z,98879.84
2023-04-12T20:49:20.540Z,98889.09
2023-04-12T20:51:48.522Z,98883.53
2023-04-12T20:54:16.748Z,98882.56
2023-04-12T20:56:45.111Z,98873.78
2023-04-12T20:59:12.857Z,98877.13
2023-04-12T21:01:40.653Z,98876.19
2023-04-12T21:04:09.026Z,98878.06
2023-04-12T21:06:38.154Z,98884.19
2023-04-12T21:09:06.008Z,98875.38
2023-04-12T21:11:33.765Z,98863.94
2023-04-12T21:14:01.565Z,98865.47
2023-04-12T21:16:29.376Z,98874.03
2023-04-12T21:18:58.304Z,98876.38
2023-04-12T21:21:27.055Z,98878.84
2023-04-12T21:23:56.235Z,98877.56
2023-04-12T21:26:24.282Z,98872.03
2023-04-12T21:28:52.115Z,98868.28
2023-04-12T21:31:20.046Z,98862.91
2023-04-12T21:33:48.106Z,98864.25
2023-04-12T21:36:15.820Z,98861.31
2023-04-12T21:38:43.549Z,98867.72
2023-04-12T21:41:12.941Z,98868.72
2023-04-12T21:43:41.267Z,98866.41
2023-04-12T21:46:09.169Z,98875.47
2023-04-12T21:48:37.615Z,98871.38
2023-04-12T21:51:05.939Z,98874.97
2023-04-12T21:53:33.795Z,98871.69
2023-04-12T21:56:01.719Z,98872.88
2023-04-12T21:58:32.426Z,98870.25
2023-04-12T22:01:00.320Z,98870.41
2023-04-12T22:03:28.393Z,98868.78
2023-04-12T22:06:04.113Z,98874.03
2023-04-12T22:08:32.801Z,98869.94
2023-04-12T22:11:01.274Z,98873.56
2023-04-12T22:13:30.859Z,98878.31
2023-04-12T22:16:00.625Z,98875.84
2023-04-12T22:18:28.447Z,98867.81
2023-04-12T22:20:57.085Z,98870.81
2023-04-12T22:23:24.914Z,98878.81
2023-04-12T22:25:58.189Z,98880.94
2023-04-12T22:28:26.035Z,98880.28
2023-04-12T22:30:57.035Z,98880.78
2023-04-12T22:33:24.893Z,98867.69
2023-04-12T22:35:52.592Z,98870.31
2023-04-12T22:38:20.506Z,98871.94
2023-04-12T22:40:48.294Z,98871.28
2023-04-12T22:43:18.365Z,98869.31
2023-04-12T22:45:46.980Z,98874.41
2023-04-12T22:48:16.157Z,98881.59
2023-04-12T22:50:45.016Z,98873.75
2023-04-12T22:53:13.924Z,98872.09
2023-04-12T22:55:42.142Z,98860.66
2023-04-12T22:58:09.951Z,98862.28
2023-04-12T23:00:39.308Z,98861.47
2023-04-12T23:03:10.831Z,98861.47
2023-04-12T23:05:44.826Z,98856.22
2023-04-12T23:08:14.333Z,98856.38
2023-04-12T23:10:43.044Z,98855.56
2023-04-12T23:13:11.108Z,98856.22
2023-04-12T23:15:40.429Z,98848.38
2023-04-12T23:18:08.969Z,98834.13
2023-04-12T23:20:36.874Z,98834.13
2023-04-12T23:23:06.009Z,98830.50
2023-04-12T23:25:41.758Z,98840.97
2023-04-12T23:28:12.940Z,98834.75
2023-04-12T23:30:43.842Z,98835.72
2023-04-12T23:33:12.238Z,98832.47
2023-04-12T23:35:41.559Z,98834.63
2023-04-12T23:38:15.365Z,98832.34
2023-04-12T23:40:44.193Z,98837.59
2023-04-12T23:43:11.933Z,98848.06
2023-04-12T23:45:39.800Z,98836.94
2023-04-12T23:48:07.903Z,98838.56
2023-04-12T23:50:35.753Z,98837.59
2023-04-12T23:53:04.047Z,98832.16
2023-04-12T23:55:33.153Z,98829.22
2023-04-12T23:58:00.921Z,98826.44
